createdAt,value
2023-04-21T00:01:08.600Z,10.77
2023-04-21T00:03:35.819Z,13.00
2023-04-21T00:06:02.959Z,12.55
2023-04-21T00:08:29.982Z,10.02
2023-04-21T00:10:57.029Z,8.25
2023-04-21T00:13:24.092Z,7.88
2023-04-21T00:15:51.196Z,10.77
2023-04-21T00:18:18.626Z,9.80
2023-04-21T00:20:45.679Z,9.90
2023-04-21T00:23:12.708Z,10.02
2023-04-21T00:25:39.791Z,9.93
2023-04-21T00:28:06.802Z,10.02
2023-04-21T00:30:33.944Z,7.93
2023-04-21T00:33:00.991Z,10.00
2023-04-21T00:35:28.053Z,8.23
2023-04-21T00:37:55.091Z,9.77
2023-04-21T00:40:22.164Z,8.43
2023-04-21T00:42:49.228Z,7.32
2023-04-21T00:45:16.257Z,9.35
2023-04-21T00:47:43.394Z,9.20
2023-04-21T00:50:10.490Z,11.20
2023-04-21T00:52:37.523Z,8.98
2023-04-21T00:55:04.556Z,7.72
2023-04-21T00:57:31.599Z,11.00
2023-04-21T00:59:58.676Z,10.15
2023-04-21T01:02:25.796Z,9.38
2023-04-21T01:04:52.925Z,10.57
2023-04-21T01:07:19.981Z,8.30
2023-04-21T01:09:47.002Z,9.07
2023-04-21T01:12:14.405Z,8.25
2023-04-21T01:14:41.477Z,11.20
2023-04-21T01:17:08.542Z,8.75
2023-04-21T01:19:35.567Z,10.30
2023-04-21T01:22:02.655Z,12.07
2023-04-21T01:24:29.695Z,11.27
2023-04-21T01:26:56.683Z,10.05
2023-04-21T01:29:23.696Z,8.38
2023-04-21T01:31:50.875Z,10.63
2023-04-21T01:34:17.934Z,8.13
2023-04-21T01:36:44.952Z,9.88
2023-04-21T01:39:12.000Z,9.75
2023-04-21T01:41:39.042Z,10.27
2023-04-21T01:44:06.240Z,8.85
2023-04-21T01:46:33.341Z,9.32
2023-04-21T01:49:00.477Z,9.30
2023-04-21T01:51:27.543Z,10.77
2023-04-21T01:53:54.590Z,9.73
2023-04-21T01:56:21.716Z,10.60
2023-04-21T01:58:48.796Z,14.15
2023-04-21T02:01:15.882Z,8.52
2023-04-21T02:03:43.118Z,10.85
2023-04-21T02:06:10.242Z,12.25
2023-04-21T02:08:37.278Z,9.20
2023-04-21T02:11:04.293Z,10.55
2023-04-21T02:13:31.333Z,11.85
2023-04-21T02:16:12.176Z,9.48
2023-04-21T02:18:40.735Z,11.77
2023-04-21T02:21:07.781Z,8.70
2023-04-21T02:23:34.807Z,8.93
2023-04-21T02:26:01.847Z,9.57
2023-04-21T02:28:28.899Z,9.02
2023-04-21T02:30:55.965Z,8.93
2023-04-21T02:33:23.144Z,7.60
2023-04-21T02:35:50.229Z,6.35
2023-04-21T02:38:17.265Z,9.95
2023-04-21T02:40:44.301Z,10.05
2023-04-21T02:43:11.315Z,7.40
2023-04-21T02:45:38.665Z,7.93
2023-04-21T02:48:06.328Z,9.15
2023-04-21T02:50:33.378Z,8.75
2023-04-21T02:53:00.404Z,7.88
2023-04-21T02:55:27.480Z,9.77
2023-04-21T02:57:54.485Z,7.85
2023-04-21T03:00:21.567Z,5.95
2023-04-21T03:02:48.762Z,8.43
2023-04-21T03:05:15.946Z,8.05
2023-04-21T03:07:42.994Z,12.15
2023-04-21T03:10:10.041Z,10.93
2023-04-21T03:12:37.075Z,8.25
2023-04-21T03:15:04.124Z,9.07
2023-04-21T03:17:33.167Z,9.10
2023-04-21T03:20:00.512Z,8.73
2023-04-21T03:22:27.557Z,11.13
2023-04-21T03:24:54.622Z,7.90
2023-04-21T03:27:21.657Z,10.80
2023-04-21T03:29:48.657Z,9.15
2023-04-21T03:32:15.863Z,7.53
2023-04-21T03:34:42.979Z,9.40
2023-04-21T03:37:10.032Z,9.27
2023-04-21T03:39:37.066Z,8.20
2023-04-21T03:42:04.084Z,9.13
2023-04-21T03:44:31.165Z,7.28
2023-04-21T03:46:58.655Z,7.22
2023-04-21T03:49:25.710Z,10.25
2023-04-21T03:51:52.729Z,9.35
2023-04-21T03:54:19.846Z,6.82
2023-04-21T03:56:46.870Z,9.50
2023-04-21T03:59:13.909Z,9.90
2023-04-21T04:01:40.945Z,8.00
2023-04-21T04:04:08.204Z,8.30
2023-04-21T04:06:35.442Z,12.88
2023-04-21T04:09:02.747Z,10.80
2023-04-21T04:11:29.826Z,9.60
2023-04-21T04:13:56.870Z,11.98
2023-04-21T04:16:24.015Z,11.23
2023-04-21T04:18:51.117Z,8.43
2023-04-21T04:21:18.142Z,10.50
2023-04-21T04:23:45.202Z,6.85
2023-04-21T04:26:12.274Z,12.32
2023-04-21T04:28:39.352Z,9.15
2023-04-21T04:31:07.674Z,9.20
2023-04-21T04:33:34.774Z,8.95
2023-04-21T04:36:01.851Z,8.02
2023-04-21T04:38:28.857Z,11.40
2023-04-21T04:40:55.878Z,8.00
2023-04-21T04:43:22.896Z,10.90
2023-04-21T04:45:49.911Z,7.05
2023-04-21T04:48:16.925Z,10.85
2023-04-21T04:50:44.307Z,10.57
2023-04-21T04:53:11.358Z,5.40
2023-04-21T04:55:38.400Z,11.98
2023-04-21T04:58:05.500Z,13.48
2023-04-21T05:00:32.542Z,9.85
2023-04-21T05:02:59.747Z,8.45
2023-04-21T05:05:26.884Z,14.48
2023-04-21T05:07:53.974Z,9.95
2023-04-21T05:10:21.130Z,8.63
2023-04-21T05:12:48.279Z,12.15
2023-04-21T05:15:15.300Z,10.50
2023-04-21T05:17:43.301Z,8.85
2023-04-21T05:20:10.401Z,12.82
2023-04-21T05:22:37.458Z,11.07
2023-04-21T05:25:04.530Z,11.80
2023-04-21T05:27:31.577Z,11.23
2023-04-21T05:29:58.665Z,10.35
2023-04-21T05:32:25.720Z,10.70
2023-04-21T05:34:52.887Z,12.65
2023-04-21T05:37:19.885Z,12.02
2023-04-21T05:39:46.881Z,9.52
2023-04-21T05:42:13.909Z,12.70
2023-04-21T05:44:40.953Z,9.65
2023-04-21T05:47:08.037Z,11.40
2023-04-21T05:49:35.048Z,13.57
2023-04-21T05:52:02.165Z,13.65
2023-04-21T05:54:29.221Z,11.90
2023-04-21T05:56:56.239Z,14.95
2023-04-21T05:59:23.266Z,10.43
2023-04-21T06:01:50.303Z,11.18
2023-04-21T06:04:17.598Z,15.63
2023-04-21T06:06:44.825Z,9.82
2023-04-21T06:09:14.081Z,13.35
2023-04-21T06:11:41.119Z,13.10
2023-04-21T06:14:08.152Z,13.30
2023-04-21T06:16:37.951Z,14.02
2023-04-21T06:19:05.185Z,15.45
2023-04-21T06:21:32.204Z,16.20
2023-04-21T06:24:01.713Z,14.32
2023-04-21T06:26:28.728Z,13.07
2023-04-21T06:28:55.724Z,10.70
2023-04-21T06:31:22.803Z,14.95
2023-04-21T06:33:49.885Z,14.52
2023-04-21T06:36:18.117Z,16.67
2023-04-21T06:38:45.345Z,14.40
2023-04-21T06:41:12.358Z,12.45
2023-04-21T06:43:39.383Z,15.18
2023-04-21T06:46:06.426Z,12.02
2023-04-21T06:48:33.474Z,11.20
2023-04-21T06:51:00.491Z,11.50
2023-04-21T06:53:27.591Z,6.30
2023-04-21T06:55:54.606Z,13.82
2023-04-21T06:58:21.679Z,9.75
2023-04-21T07:00:48.729Z,9.85
2023-04-21T07:03:15.992Z,11.05
2023-04-21T07:05:43.162Z,10.88
2023-04-21T07:08:10.191Z,12.45
2023-04-21T07:10:37.256Z,11.20
2023-04-21T07:13:04.305Z,9.77
2023-04-21T07:15:31.351Z,7.53
2023-04-21T07:17:58.422Z,7.78
2023-04-21T07:20:25.463Z,7.38
2023-04-21T07:22:52.501Z,7.78
2023-04-21T07:25:19.544Z,7.93
2023-04-21T07:27:46.576Z,7.75
2023-04-21T07:30:13.635Z,11.60
2023-04-21T07:32:40.695Z,9.52
2023-04-21T07:35:07.865Z,9.05
2023-04-21T07:37:34.988Z,8.82
2023-04-21T07:40:02.028Z,7.30
2023-04-21T07:42:29.060Z,8.65
2023-04-21T07:44:56.141Z,10.57
2023-04-21T07:47:23.441Z,13.55
2023-04-21T07:49:50.662Z,15.05
2023-04-21T07:52:17.722Z,7.63
2023-04-21T07:54:44.755Z,5.15
2023-04-21T07:57:14.314Z,6.68
2023-04-21T07:59:43.683Z,9.38
2023-04-21T08:02:10.790Z,11.38
2023-04-21T08:04:38.195Z,6.53
2023-04-21T08:07:05.520Z,5.90
2023-04-21T08:09:32.609Z,6.20
2023-04-21T08:11:59.633Z,5.97
2023-04-21T08:14:26.846Z,9.68
2023-04-21T08:16:56.594Z,6.35
2023-04-21T08:19:24.209Z,4.45
2023-04-21T08:21:51.252Z,6.85
2023-04-21T08:24:18.796Z,4.55
2023-04-21T08:26:46.120Z,3.72
2023-04-21T08:29:13.183Z,4.38
2023-04-21T08:31:40.262Z,4.97
2023-04-21T08:34:08.467Z,4.07
2023-04-21T08:36:35.529Z,4.20
2023-04-21T08:39:02.600Z,3.45
2023-04-21T08:41:29.629Z,3.47
2023-04-21T08:43:56.684Z,4.18
2023-04-21T08:46:23.842Z,4.05
2023-04-21T08:48:52.239Z,4.30
2023-04-21T08:51:20.109Z,4.40
2023-04-21T08:53:47.178Z,4.30
2023-04-21T08:56:14.207Z,3.50
2023-04-21T08:58:41.973Z,4.75
2023-04-21T09:01:09.243Z,4.85
2023-04-21T09:03:36.436Z,3.67
2023-04-21T09:06:03.938Z,5.38
2023-04-21T09:08:31.427Z,4.80
2023-04-21T09:10:58.474Z,4.88
2023-04-21T09:13:25.524Z,3.78
2023-04-21T09:15:52.962Z,2.97
2023-04-21T09:18:20.489Z,4.15
2023-04-21T09:20:47.489Z,3.78
2023-04-21T09:23:14.542Z,3.60
2023-04-21T09:25:41.571Z,3.10
2023-04-21T09:28:08.582Z,4.05
2023-04-21T09:30:35.805Z,3.47
2023-04-21T09:33:08.257Z,3.05
2023-04-21T09:35:40.754Z,4.03
2023-04-21T09:38:07.774Z,2.83
2023-04-21T09:40:34.803Z,3.30
2023-04-21T09:43:01.844Z,2.88
2023-04-21T09:45:39.070Z,8.10
2023-04-21T09:48:07.056Z,4.57
2023-04-21T09:51:11.378Z,3.83
2023-04-21T09:53:21.220Z,2.75
2023-04-21T09:55:48.343Z,3.33
2023-04-21T09:58:15.551Z,3.03
2023-04-21T10:00:42.641Z,3.15
2023-04-21T10:03:10.261Z,2.75
2023-04-21T10:05:39.369Z,3.60
2023-04-21T10:08:08.253Z,3.47
2023-04-21T10:10:35.530Z,3.95
2023-04-21T10:13:02.518Z,3.50
2023-04-21T10:15:29.601Z,3.70
2023-04-21T10:17:56.745Z,4.32
2023-04-21T10:20:23.923Z,3.38
2023-04-21T10:22:50.950Z,4.65
2023-04-21T10:25:17.957Z,3.95
2023-04-21T10:27:44.992Z,2.83
2023-04-21T10:30:12.008Z,4.15
2023-04-21T10:32:39.105Z,4.75
2023-04-21T10:35:06.145Z,2.42
2023-04-21T10:37:33.160Z,2.40
2023-04-21T10:40:00.330Z,2.00
2023-04-21T10:42:27.397Z,2.53
2023-04-21T10:44:54.506Z,3.00
2023-04-21T10:47:21.840Z,2.47
2023-04-21T10:49:48.912Z,1.90
2023-04-21T10:52:15.933Z,2.88
2023-04-21T10:54:42.954Z,2.13
2023-04-21T10:57:10.062Z,2.35
2023-04-21T10:59:37.124Z,2.08
2023-04-21T11:02:04.232Z,4.78
2023-04-21T11:04:31.479Z,2.85
2023-04-21T11:06:58.806Z,2.90
2023-04-21T11:09:25.826Z,2.80
2023-04-21T11:11:52.855Z,2.10
2023-04-21T11:14:19.970Z,2.08
2023-04-21T11:16:47.200Z,13.65
2023-04-21T11:19:14.291Z,2.75
2023-04-21T11:21:41.314Z,1.85
2023-04-21T11:24:08.323Z,6.00
2023-04-21T11:26:35.418Z,2.38
2023-04-21T11:29:02.444Z,2.38
2023-04-21T11:31:29.760Z,2.25
2023-04-21T11:33:56.966Z,4.90
2023-04-21T11:36:24.036Z,2.70
2023-04-21T11:38:51.107Z,2.10
2023-04-21T11:41:18.141Z,1.98
2023-04-21T11:43:45.194Z,2.08
2023-04-21T11:46:12.290Z,1.70
2023-04-21T11:48:39.548Z,2.55
2023-04-21T11:51:06.728Z,3.75
2023-04-21T11:53:33.779Z,2.35
2023-04-21T11:56:00.890Z,3.28
2023-04-21T11:58:27.897Z,2.15
2023-04-21T12:00:55.001Z,2.53
2023-04-21T12:03:22.305Z,1.80
2023-04-21T12:05:49.483Z,2.00
2023-04-21T12:08:16.633Z,1.77
2023-04-21T12:10:43.684Z,2.63
2023-04-21T12:13:11.153Z,1.70
2023-04-21T12:15:38.193Z,2.88
2023-04-21T12:18:05.297Z,2.85
2023-04-21T12:20:32.531Z,2.00
2023-04-21T12:22:59.697Z,2.35
2023-04-21T12:25:26.757Z,1.50
2023-04-21T12:27:53.817Z,1.67
2023-04-21T12:30:20.945Z,2.10
2023-04-21T12:32:47.991Z,2.40
2023-04-21T12:35:15.056Z,1.70
2023-04-21T12:37:42.069Z,2.42
2023-04-21T12:40:09.461Z,7.35
2023-04-21T12:42:38.192Z,2.05
2023-04-21T12:45:05.598Z,2.35
2023-04-21T12:47:32.760Z,2.83
2023-04-21T12:49:59.990Z,4.30
2023-04-21T12:52:27.047Z,2.20
2023-04-21T12:54:54.066Z,2.38
2023-04-21T12:57:21.157Z,2.10
2023-04-21T12:59:48.332Z,1.80
2023-04-21T13:02:15.607Z,2.30
2023-04-21T13:04:42.885Z,1.35
2023-04-21T13:07:09.940Z,1.33
2023-04-21T13:09:37.029Z,1.50
2023-04-21T13:12:04.073Z,1.45
2023-04-21T13:14:31.165Z,1.50
2023-04-21T13:16:58.250Z,1.63
2023-04-21T13:19:25.305Z,2.75
2023-04-21T13:21:54.198Z,3.13
2023-04-21T13:24:21.494Z,2.60
2023-04-21T13:26:48.519Z,2.13
2023-04-21T13:29:15.558Z,2.17
2023-04-21T13:31:42.614Z,1.67
2023-04-21T13:34:09.621Z,1.65
2023-04-21T13:36:36.679Z,1.52
2023-04-21T13:39:03.785Z,1.67
2023-04-21T13:41:30.828Z,1.45
2023-04-21T13:43:57.925Z,2.13
2023-04-21T13:46:25.051Z,4.10
2023-04-21T13:48:52.168Z,2.50
2023-04-21T13:51:19.243Z,1.30
2023-04-21T13:53:46.347Z,1.25
2023-04-21T13:56:13.391Z,2.00
2023-04-21T13:58:40.473Z,1.30
2023-04-21T14:01:07.522Z,1.65
2023-04-21T14:03:34.767Z,2.03
2023-04-21T14:06:02.018Z,1.20
2023-04-21T14:08:29.289Z,1.20
2023-04-21T14:10:56.574Z,1.23
2023-04-21T14:13:35.720Z,1.20
2023-04-21T14:16:09.525Z,1.17
2023-04-21T14:18:36.633Z,1.20
2023-04-21T14:21:03.948Z,1.77
2023-04-21T14:23:30.965Z,3.65
2023-04-21T14:25:58.406Z,2.97
2023-04-21T14:28:25.495Z,1.60
2023-04-21T14:30:53.499Z,2.63
2023-04-21T14:33:20.601Z,2.53
2023-04-21T14:35:47.674Z,2.28
2023-04-21T14:38:14.707Z,1.38
2023-04-21T14:40:41.759Z,1.20
2023-04-21T14:43:08.821Z,1.40
2023-04-21T14:45:35.901Z,1.05
2023-04-21T14:48:03.258Z,0.98
2023-04-21T14:50:30.379Z,1.73
2023-04-21T14:52:57.418Z,1.20
2023-04-21T14:55:24.441Z,1.13
2023-04-21T14:57:51.484Z,1.25
2023-04-21T15:00:18.526Z,1.13
2023-04-21T15:02:45.691Z,0.70
2023-04-21T15:05:13.201Z,2.28
2023-04-21T15:07:40.246Z,6.68
2023-04-21T15:10:07.326Z,1.25
2023-04-21T15:12:36.374Z,1.52
2023-04-21T15:15:03.674Z,1.08
2023-04-21T15:17:30.750Z,0.95
2023-04-21T15:19:57.795Z,1.45
2023-04-21T15:22:24.800Z,1.10
2023-04-21T15:24:53.114Z,2.78
2023-04-21T15:27:21.450Z,1.63
2023-04-21T15:29:48.474Z,0.82
2023-04-21T15:32:15.552Z,1.23
2023-04-21T15:34:42.607Z,1.20
2023-04-21T15:37:09.679Z,1.08
2023-04-21T15:39:36.914Z,1.67
2023-04-21T15:42:04.441Z,1.00
2023-04-21T15:44:31.671Z,1.35
2023-04-21T15:46:58.844Z,1.00
2023-04-21T15:49:26.309Z,1.20
2023-04-21T15:51:53.502Z,6.82
2023-04-21T15:54:20.594Z,1.45
2023-04-21T15:56:47.627Z,0.70
2023-04-21T15:59:14.731Z,1.35
2023-04-21T16:01:41.825Z,1.40
2023-04-21T16:04:09.062Z,1.50
2023-04-21T16:06:36.459Z,0.70
2023-04-21T16:09:03.533Z,1.27
2023-04-21T16:11:30.605Z,1.00
2023-04-21T16:13:57.938Z,1.42
2023-04-21T16:16:25.184Z,1.00
2023-04-21T16:18:52.398Z,1.58
2023-04-21T16:21:19.576Z,1.13
2023-04-21T16:23:46.567Z,0.88
2023-04-21T16:26:13.715Z,0.82
2023-04-21T16:28:40.795Z,1.20
2023-04-21T16:31:07.974Z,1.05
2023-04-21T16:33:36.064Z,1.55
2023-04-21T16:36:03.172Z,3.55
2023-04-21T16:38:30.211Z,1.30
2023-04-21T16:40:57.370Z,1.20
2023-04-21T16:43:24.397Z,1.30
2023-04-21T16:45:51.549Z,1.20
2023-04-21T16:48:18.610Z,3.90
2023-04-21T16:50:45.785Z,1.30
2023-04-21T16:53:12.828Z,2.30
2023-04-21T16:55:39.845Z,1.63
2023-04-21T16:58:06.878Z,4.68
2023-04-21T17:00:33.976Z,1.70
2023-04-21T17:03:01.215Z,1.30
2023-04-21T17:05:28.403Z,1.38
2023-04-21T17:07:55.453Z,1.67
2023-04-21T17:10:22.469Z,5.20
2023-04-21T17:12:49.479Z,2.03
2023-04-21T17:15:16.537Z,2.28
2023-04-21T17:17:43.637Z,3.33
2023-04-21T17:20:10.770Z,3.13
2023-04-21T17:22:37.959Z,2.75
2023-04-21T17:25:05.027Z,1.20
2023-04-21T17:27:32.055Z,1.58
2023-04-21T17:29:59.108Z,4.00
2023-04-21T17:32:26.217Z,1.73
2023-04-21T17:34:53.291Z,1.75
2023-04-21T17:37:20.337Z,1.58
2023-04-21T17:39:47.375Z,1.77
2023-04-21T17:42:14.417Z,1.30
2023-04-21T17:44:41.559Z,1.40
2023-04-21T17:47:08.629Z,1.48
2023-04-21T17:49:35.636Z,1.90
2023-04-21T17:52:02.627Z,2.25
2023-04-21T17:54:29.658Z,1.10
2023-04-21T17:56:56.693Z,1.95
2023-04-21T17:59:23.730Z,1.77
2023-04-21T18:01:50.848Z,1.63
2023-04-21T18:04:18.189Z,1.50
2023-04-21T18:06:45.325Z,2.05
2023-04-21T18:09:12.369Z,2.33
2023-04-21T18:11:39.411Z,2.55
2023-04-21T18:14:06.441Z,4.50
2023-04-21T18:16:33.579Z,2.45
2023-04-21T18:19:00.744Z,1.58
2023-04-21T18:21:27.755Z,1.58
2023-04-21T18:23:54.947Z,4.80
2023-04-21T18:26:21.955Z,2.17
2023-04-21T18:28:48.960Z,2.42
2023-04-21T18:31:16.061Z,9.10
2023-04-21T18:33:43.128Z,17.63
2023-04-21T18:36:10.245Z,2.47
2023-04-21T18:38:37.497Z,2.58
2023-04-21T18:41:04.522Z,2.97
2023-04-21T18:43:31.533Z,3.30
2023-04-21T18:45:58.574Z,2.13
2023-04-21T18:48:25.599Z,2.72
2023-04-21T18:50:52.733Z,2.35
2023-04-21T18:53:19.806Z,2.58
2023-04-21T18:55:46.880Z,2.50
2023-04-21T18:58:13.905Z,4.20
2023-04-21T19:00:40.962Z,3.15
2023-04-21T19:03:08.144Z,3.10
2023-04-21T19:05:35.357Z,6.25
2023-04-21T19:08:02.479Z,2.78
2023-04-21T19:10:29.507Z,2.63
2023-04-21T19:12:56.579Z,1.88
2023-04-21T19:15:26.097Z,4.50
2023-04-21T19:17:53.208Z,1.35
2023-04-21T19:20:20.304Z,1.70
2023-04-21T19:22:47.348Z,1.73
2023-04-21T19:25:14.382Z,3.83
2023-04-21T19:27:41.446Z,1.75
2023-04-21T19:30:08.921Z,1.30
2023-04-21T19:32:36.034Z,2.22
2023-04-21T19:35:03.101Z,4.55
2023-04-21T19:37:32.931Z,2.65
2023-04-21T19:40:01.576Z,2.95
2023-04-21T19:42:28.619Z,2.53
2023-04-21T19:44:55.672Z,11.02
2023-04-21T19:47:22.714Z,3.17
2023-04-21T19:49:49.762Z,3.85
2023-04-21T19:52:17.408Z,2.25
2023-04-21T19:54:44.524Z,2.75
2023-04-21T19:57:11.524Z,3.67
2023-04-21T19:59:38.748Z,3.10
2023-04-21T20:02:06.292Z,4.45
2023-04-21T20:04:33.415Z,3.15
2023-04-21T20:07:00.847Z,1.50
2023-04-21T20:09:31.232Z,1.40
2023-04-21T20:11:58.263Z,1.58
2023-04-21T20:14:25.311Z,1.55
2023-04-21T20:16:52.281Z,1.55
2023-04-21T20:19:19.341Z,1.45
2023-04-21T20:21:46.388Z,4.50
2023-04-21T20:24:13.429Z,2.67
2023-04-21T20:26:40.447Z,3.70
2023-04-21T20:29:07.499Z,2.50
2023-04-21T20:31:34.624Z,2.47
2023-04-21T20:34:01.676Z,2.42
2023-04-21T20:36:28.712Z,4.20
2023-04-21T20:38:55.742Z,4.38
2023-04-21T20:41:24.272Z,6.60
2023-04-21T20:43:51.280Z,3.22
2023-04-21T20:46:18.347Z,3.25
2023-04-21T20:48:45.455Z,5.05
2023-04-21T20:51:12.504Z,8.60
2023-04-21T20:53:39.581Z,5.15
2023-04-21T20:56:06.604Z,4.80
2023-04-21T20:58:33.665Z,3.10
2023-04-21T21:01:00.828Z,3.63
2023-04-21T21:03:28.082Z,3.80
2023-04-21T21:05:55.412Z,4.70
2023-04-21T21:08:22.458Z,5.25
2023-04-21T21:10:49.678Z,2.63
2023-04-21T21:13:16.713Z,4.60
2023-04-21T21:15:43.723Z,2.67
2023-04-21T21:18:10.843Z,3.70
2023-04-21T21:20:37.930Z,3.10
2023-04-21T21:23:04.977Z,2.60
2023-04-21T21:25:32.061Z,3.47
2023-04-21T21:27:59.052Z,3.38
2023-04-21T21:30:26.065Z,3.10
2023-04-21T21:32:53.149Z,2.88
2023-04-21T21:35:20.222Z,6.25
2023-04-21T21:37:47.260Z,4.40
2023-04-21T21:40:14.303Z,4.45
2023-04-21T21:42:41.399Z,3.95
2023-04-21T21:45:08.417Z,3.22
2023-04-21T21:47:38.253Z,2.85
2023-04-21T21:50:07.458Z,6.80
2023-04-21T21:52:34.468Z,7.30
2023-04-21T21:55:04.484Z,2.90
2023-04-21T21:57:31.533Z,3.85
2023-04-21T21:59:58.624Z,6.93
2023-04-21T22:02:25.724Z,3.63
2023-04-21T22:04:53.065Z,5.00
2023-04-21T22:07:20.160Z,2.45
2023-04-21T22:09:47.190Z,2.67
2023-04-21T22:12:14.213Z,5.25
2023-04-21T22:14:41.244Z,6.97
2023-04-21T22:17:08.321Z,6.30
2023-04-21T22:19:35.448Z,4.90
2023-04-21T22:22:02.521Z,9.32
2023-04-21T22:24:29.543Z,3.45
2023-04-21T22:26:56.572Z,3.88
2023-04-21T22:29:23.590Z,7.18
2023-04-21T22:31:50.692Z,3.58
2023-04-21T22:34:20.059Z,6.03
2023-04-21T22:36:49.525Z,3.28
2023-04-21T22:39:16.544Z,3.30
2023-04-21T22:41:43.538Z,8.35
2023-04-21T22:44:10.584Z,3.25
2023-04-21T22:46:37.941Z,5.75
2023-04-21T22:49:05.148Z,4.03
2023-04-21T22:51:32.388Z,9.63
2023-04-21T22:53:59.620Z,4.88
2023-04-21T22:56:26.666Z,2.58
2023-04-21T22:58:53.678Z,4.22
2023-04-21T23:01:20.998Z,5.47
2023-04-21T23:03:48.349Z,3.42
2023-04-21T23:06:15.485Z,5.50
2023-04-21T23:08:42.529Z,6.82
2023-04-21T23:11:09.563Z,4.68
2023-04-21T23:13:36.613Z,8.93
2023-04-21T23:16:03.709Z,3.58
2023-04-21T23:18:30.786Z,3.75
2023-04-21T23:20:57.783Z,3.92
2023-04-21T23:23:24.845Z,5.40
2023-04-21T23:25:51.878Z,4.65
2023-04-21T23:28:18.885Z,5.85
2023-04-21T23:30:45.917Z,8.32
2023-04-21T23:33:13.027Z,5.90
2023-04-21T23:35:40.093Z,5.18
2023-04-21T23:38:07.141Z,3.80
2023-04-21T23:40:34.208Z,2.70
2023-04-21T23:43:01.267Z,5.93
2023-04-21T23:45:30.612Z,4.28
2023-04-21T23:47:57.683Z,6.00
2023-04-21T23:50:24.726Z,2.58
2023-04-21T23:52:51.767Z,5.38
2023-04-21T23:55:18.770Z,3.53
2023-04-21T23:57:45.810Z,3.10
